sensor_id;sensor_type;location;lat;lon;timestamp;P1;durP1;ratioP1;P2;durP2;ratioP2
59239;SDS011;45010;53.640;10.578;2022-12-07T00:00:39;0.70;;;0.60;;
59239;SDS011;45010;53.640;10.578;2022-12-07T00:03:39;0.70;;;0.60;;
59239;SDS011;45010;53.640;10.578;2022-12-07T00:06:42;1.13;;;0.47;;
59239;SDS011;45010;53.640;10.578;2022-12-07T00:09:43;0.85;;;0.57;;
59239;SDS011;45010;53.640;10.578;2022-12-07T00:12:43;0.77;;;0.70;;
59239;SDS011;45010;53.640;10.578;2022-12-07T00:15:44;0.98;;;0.60;;
59239;SDS011;45010;53.640;10.578;2022-12-07T00:18:44;1.42;;;0.70;;
59239;SDS011;45010;53.640;10.578;2022-12-07T00:21:45;0.90;;;0.70;;
59239;SDS011;45010;53.640;10.578;2022-12-07T00:24:45;2.35;;;1.13;;
59239;SDS011;45010;53.640;10.578;2022-12-07T00:27:46;1.58;;;0.80;;
59239;SDS011;45010;53.640;10.578;2022-12-07T00:30:46;2.00;;;0.82;;
59239;SDS011;45010;53.640;10.578;2022-12-07T00:33:46;2.25;;;0.98;;
59239;SDS011;45010;53.640;10.578;2022-12-07T00:36:47;0.88;;;0.70;;
59239;SDS011;45010;53.640;10.578;2022-12-07T00:39:48;1.08;;;0.68;;
59239;SDS011;45010;53.640;10.578;2022-12-07T00:42:49;1.60;;;0.90;;
59239;SDS011;45010;53.640;10.578;2022-12-07T00:45:49;1.70;;;0.70;;
59239;SDS011;45010;53.640;10.578;2022-12-07T00:48:50;0.80;;;0.50;;
59239;SDS011;45010;53.640;10.578;2022-12-07T00:51:51;1.40;;;0.70;;
59239;SDS011;45010;53.640;10.578;2022-12-07T00:54:52;2.20;;;1.02;;
59239;SDS011;45010;53.640;10.578;2022-12-07T00:57:52;1.42;;;0.70;;
59239;SDS011;45010;53.640;10.578;2022-12-07T01:00:53;0.80;;;0.50;;
59239;SDS011;45010;53.640;10.578;2022-12-07T01:03:53;1.63;;;0.90;;
59239;SDS011;45010;53.640;10.578;2022-12-07T01:06:54;0.98;;;0.70;;
59239;SDS011;45010;53.640;10.578;2022-12-07T01:09:54;1.20;;;0.77;;
59239;SDS011;45010;53.640;10.578;2022-12-07T01:12:54;1.27;;;0.85;;
59239;SDS011;45010;53.640;10.578;2022-12-07T01:15:58;1.08;;;0.63;;
59239;SDS011;45010;53.640;10.578;2022-12-07T01:19:00;0.75;;;0.57;;
59239;SDS011;45010;53.640;10.578;2022-12-07T01:22:01;1.05;;;0.63;;
59239;SDS011;45010;53.640;10.578;2022-12-07T01:25:02;0.90;;;0.80;;
59239;SDS011;45010;53.640;10.578;2022-12-07T01:28:02;1.02;;;0.70;;
59239;SDS011;45010;53.640;10.578;2022-12-07T01:34:08;1.85;;;0.57;;
59239;SDS011;45010;53.640;10.578;2022-12-07T01:37:08;0.82;;;0.60;;
59239;SDS011;45010;53.640;10.578;2022-12-07T01:40:09;1.50;;;0.77;;
59239;SDS011;45010;53.640;10.578;2022-12-07T01:43:17;1.33;;;0.90;;
59239;SDS011;45010;53.640;10.578;2022-12-07T01:46:19;2.45;;;0.60;;
59239;SDS011;45010;53.640;10.578;2022-12-07T01:52:30;0.65;;;0.60;;
59239;SDS011;45010;53.640;10.578;2022-12-07T01:55:33;1.48;;;0.80;;
59239;SDS011;45010;53.640;10.578;2022-12-07T01:58:35;0.88;;;0.68;;
59239;SDS011;45010;53.640;10.578;2022-12-07T02:01:36;0.95;;;0.68;;
59239;SDS011;45010;53.640;10.578;2022-12-07T02:04:36;1.05;;;0.70;;
59239;SDS011;45010;53.640;10.578;2022-12-07T02:07:37;0.98;;;0.93;;
59239;SDS011;45010;53.640;10.578;2022-12-07T02:10:38;1.10;;;0.70;;
59239;SDS011;45010;53.640;10.578;2022-12-07T02:13:39;1.33;;;0.75;;
59239;SDS011;45010;53.640;10.578;2022-12-07T02:16:47;0.88;;;0.57;;
59239;SDS011;45010;53.640;10.578;2022-12-07T02:20:11;1.38;;;0.70;;
59239;SDS011;45010;53.640;10.578;2022-12-07T02:30:46;0.90;;;0.68;;
59239;SDS011;45010;53.640;10.578;2022-12-07T02:33:57;0.95;;;0.68;;
59239;SDS011;45010;53.640;10.578;2022-12-07T02:37:09;0.75;;;0.55;;
59239;SDS011;45010;53.640;10.578;2022-12-07T02:40:19;1.25;;;0.60;;
59239;SDS011;45010;53.640;10.578;2022-12-07T02:43:28;0.82;;;0.60;;
59239;SDS011;45010;53.640;10.578;2022-12-07T02:46:42;1.48;;;0.80;;
59239;SDS011;45010;53.640;10.578;2022-12-07T02:49:47;0.57;;;0.50;;
59239;SDS011;45010;53.640;10.578;2022-12-07T02:52:49;1.58;;;0.75;;
59239;SDS011;45010;53.640;10.578;2022-12-07T02:55:49;0.73;;;0.52;;
59239;SDS011;45010;53.640;10.578;2022-12-07T03:05:37;0.60;;;0.60;;
59239;SDS011;45010;53.640;10.578;2022-12-07T03:08:59;0.82;;;0.70;;
59239;SDS011;45010;53.640;10.578;2022-12-07T03:12:13;0.88;;;0.63;;
59239;SDS011;45010;53.640;10.578;2022-12-07T03:15:25;0.80;;;0.60;;
59239;SDS011;45010;53.640;10.578;2022-12-07T03:18:30;0.90;;;0.57;;
59239;SDS011;45010;53.640;10.578;2022-12-07T03:22:10;1.05;;;0.52;;
59239;SDS011;45010;53.640;10.578;2022-12-07T03:25:06;1.50;;;0.60;;
59239;SDS011;45010;53.640;10.578;2022-12-07T03:28:10;0.45;;;0.40;;
59239;SDS011;45010;53.640;10.578;2022-12-07T03:31:16;0.55;;;0.50;;
59239;SDS011;45010;53.640;10.578;2022-12-07T03:34:32;0.60;;;0.60;;
59239;SDS011;45010;53.640;10.578;2022-12-07T03:37:40;0.70;;;0.60;;
59239;SDS011;45010;53.640;10.578;2022-12-07T03:41:09;1.05;;;0.50;;
59239;SDS011;45010;53.640;10.578;2022-12-07T03:44:17;0.68;;;0.57;;
59239;SDS011;45010;53.640;10.578;2022-12-07T03:47:26;1.20;;;0.60;;
59239;SDS011;45010;53.640;10.578;2022-12-07T03:50:35;1.15;;;0.60;;
59239;SDS011;45010;53.640;10.578;2022-12-07T03:53:43;0.63;;;0.50;;
59239;SDS011;45010;53.640;10.578;2022-12-07T03:56:48;0.52;;;0.43;;
59239;SDS011;45010;53.640;10.578;2022-12-07T03:59:50;0.63;;;0.40;;
59239;SDS011;45010;53.640;10.578;2022-12-07T04:02:53;0.70;;;0.50;;
59239;SDS011;45010;53.640;10.578;2022-12-07T04:05:55;0.40;;;0.40;;
59239;SDS011;45010;53.640;10.578;2022-12-07T04:08:56;0.40;;;0.40;;
59239;SDS011;45010;53.640;10.578;2022-12-07T04:11:56;0.80;;;0.50;;
59239;SDS011;45010;53.640;10.578;2022-12-07T04:14:56;0.70;;;0.50;;
59239;SDS011;45010;53.640;10.578;2022-12-07T04:17:57;0.52;;;0.40;;
59239;SDS011;45010;53.640;10.578;2022-12-07T04:20:57;0.60;;;0.60;;
59239;SDS011;45010;53.640;10.578;2022-12-07T04:23:57;0.95;;;0.60;;
59239;SDS011;45010;53.640;10.578;2022-12-07T04:26:58;0.50;;;0.50;;
59239;SDS011;45010;53.640;10.578;2022-12-07T04:29:58;0.80;;;0.50;;
59239;SDS011;45010;53.640;10.578;2022-12-07T04:32:58;0.75;;;0.50;;
59239;SDS011;45010;53.640;10.578;2022-12-07T04:35:59;0.60;;;0.57;;
59239;SDS011;45010;53.640;10.578;2022-12-07T04:38:59;0.95;;;0.63;;
59239;SDS011;45010;53.640;10.578;2022-12-07T04:42:00;0.50;;;0.40;;
59239;SDS011;45010;53.640;10.578;2022-12-07T04:45:01;0.50;;;0.50;;
59239;SDS011;45010;53.640;10.578;2022-12-07T04:48:02;0.75;;;0.50;;
59239;SDS011;45010;53.640;10.578;2022-12-07T04:51:03;0.60;;;0.40;;
59239;SDS011;45010;53.640;10.578;2022-12-07T04:54:04;0.57;;;0.47;;
59239;SDS011;45010;53.640;10.578;2022-12-07T04:57:04;0.47;;;0.35;;
59239;SDS011;45010;53.640;10.578;2022-12-07T05:00:04;0.45;;;0.35;;
59239;SDS011;45010;53.640;10.578;2022-12-07T05:03:05;1.02;;;0.55;;
59239;SDS011;45010;53.640;10.578;2022-12-07T05:06:06;1.08;;;0.50;;
59239;SDS011;45010;53.640;10.578;2022-12-07T05:09:07;0.50;;;0.30;;
59239;SDS011;45010;53.640;10.578;2022-12-07T05:12:07;0.30;;;0.30;;
59239;SDS011;45010;53.640;10.578;2022-12-07T05:15:08;0.60;;;0.60;;
59239;SDS011;45010;53.640;10.578;2022-12-07T05:18:09;0.70;;;0.50;;
59239;SDS011;45010;53.640;10.578;2022-12-07T05:21:12;0.55;;;0.47;;
59239;SDS011;45010;53.640;10.578;2022-12-07T05:24:13;1.20;;;0.60;;
59239;SDS011;45010;53.640;10.578;2022-12-07T05:27:14;0.40;;;0.40;;
59239;SDS011;45010;53.640;10.578;2022-12-07T05:30:14;1.17;;;0.30;;
59239;SDS011;45010;53.640;10.578;2022-12-07T05:33:15;0.40;;;0.40;;
59239;SDS011;45010;53.640;10.578;2022-12-07T05:36:15;0.60;;;0.40;;
59239;SDS011;45010;53.640;10.578;2022-12-07T05:39:16;0.43;;;0.32;;
59239;SDS011;45010;53.640;10.578;2022-12-07T05:42:16;0.43;;;0.40;;
59239;SDS011;45010;53.640;10.578;2022-12-07T05:45:17;1.33;;;0.45;;
59239;SDS011;45010;53.640;10.578;2022-12-07T05:48:17;0.93;;;0.50;;
59239;SDS011;45010;53.640;10.578;2022-12-07T05:51:17;0.35;;;0.35;;
59239;SDS011;45010;53.640;10.578;2022-12-07T05:54:18;0.30;;;0.30;;
59239;SDS011;45010;53.640;10.578;2022-12-07T05:57:19;0.30;;;0.30;;
59239;SDS011;45010;53.640;10.578;2022-12-07T06:00:19;0.43;;;0.43;;
59239;SDS011;45010;53.640;10.578;2022-12-07T06:03:19;0.43;;;0.40;;
59239;SDS011;45010;53.640;10.578;2022-12-07T06:06:20;0.93;;;0.45;;
59239;SDS011;45010;53.640;10.578;2022-12-07T06:09:21;0.40;;;0.38;;
59239;SDS011;45010;53.640;10.578;2022-12-07T06:12:23;0.38;;;0.30;;
59239;SDS011;45010;53.640;10.578;2022-12-07T06:15:36;0.77;;;0.40;;
59239;SDS011;45010;53.640;10.578;2022-12-07T06:18:36;0.40;;;0.40;;
59239;SDS011;45010;53.640;10.578;2022-12-07T06:21:37;0.60;;;0.40;;
59239;SDS011;45010;53.640;10.578;2022-12-07T06:24:37;0.80;;;0.40;;
59239;SDS011;45010;53.640;10.578;2022-12-07T06:27:38;1.17;;;0.40;;
59239;SDS011;45010;53.640;10.578;2022-12-07T06:30:38;0.55;;;0.40;;
59239;SDS011;45010;53.640;10.578;2022-12-07T06:33:39;0.75;;;0.50;;
59239;SDS011;45010;53.640;10.578;2022-12-07T06:36:40;0.65;;;0.40;;
59239;SDS011;45010;53.640;10.578;2022-12-07T06:39:41;1.25;;;0.50;;
59239;SDS011;45010;53.640;10.578;2022-12-07T06:42:41;0.65;;;0.50;;
59239;SDS011;45010;53.640;10.578;2022-12-07T06:45:41;0.40;;;0.40;;
59239;SDS011;45010;53.640;10.578;2022-12-07T06:48:42;2.05;;;0.50;;
59239;SDS011;45010;53.640;10.578;2022-12-07T06:51:43;0.65;;;0.30;;
59239;SDS011;45010;53.640;10.578;2022-12-07T06:54:43;0.70;;;0.40;;
59239;SDS011;45010;53.640;10.578;2022-12-07T06:57:44;0.93;;;0.35;;
59239;SDS011;45010;53.640;10.578;2022-12-07T07:00:47;0.40;;;0.38;;
59239;SDS011;45010;53.640;10.578;2022-12-07T07:03:48;0.60;;;0.35;;
59239;SDS011;45010;53.640;10.578;2022-12-07T07:06:48;0.32;;;0.32;;
59239;SDS011;45010;53.640;10.578;2022-12-07T07:09:48;1.05;;;0.38;;
59239;SDS011;45010;53.640;10.578;2022-12-07T07:12:49;0.40;;;0.35;;
59239;SDS011;45010;53.640;10.578;2022-12-07T07:15:49;0.57;;;0.40;;
59239;SDS011;45010;53.640;10.578;2022-12-07T07:18:50;0.85;;;0.40;;
59239;SDS011;45010;53.640;10.578;2022-12-07T07:21:50;1.27;;;0.40;;
59239;SDS011;45010;53.640;10.578;2022-12-07T07:24:50;1.23;;;0.50;;
59239;SDS011;45010;53.640;10.578;2022-12-07T07:27:51;0.30;;;0.30;;
59239;SDS011;45010;53.640;10.578;2022-12-07T07:30:51;1.95;;;0.40;;
59239;SDS011;45010;53.640;10.578;2022-12-07T07:33:51;0.40;;;0.40;;
59239;SDS011;45010;53.640;10.578;2022-12-07T07:36:52;1.67;;;0.30;;
59239;SDS011;45010;53.640;10.578;2022-12-07T07:39:52;0.50;;;0.30;;
59239;SDS011;45010;53.640;10.578;2022-12-07T07:42:53;2.70;;;0.40;;
59239;SDS011;45010;53.640;10.578;2022-12-07T07:45:54;0.50;;;0.50;;
59239;SDS011;45010;53.640;10.578;2022-12-07T07:48:54;0.95;;;0.30;;
59239;SDS011;45010;53.640;10.578;2022-12-07T07:51:55;0.68;;;0.30;;
59239;SDS011;45010;53.640;10.578;2022-12-07T07:54:55;0.30;;;0.30;;
59239;SDS011;45010;53.640;10.578;2022-12-07T07:57:55;1.30;;;0.60;;
59239;SDS011;45010;53.640;10.578;2022-12-07T08:00:55;1.75;;;0.40;;
59239;SDS011;45010;53.640;10.578;2022-12-07T08:03:56;2.70;;;0.40;;
59239;SDS011;45010;53.640;10.578;2022-12-07T08:06:56;1.15;;;0.40;;
59239;SDS011;45010;53.640;10.578;2022-12-07T08:09:57;0.95;;;0.30;;
59239;SDS011;45010;53.640;10.578;2022-12-07T08:12:57;1.10;;;0.30;;
59239;SDS011;45010;53.640;10.578;2022-12-07T08:16:10;1.25;;;0.40;;
59239;SDS011;45010;53.640;10.578;2022-12-07T08:19:11;0.60;;;0.30;;
59239;SDS011;45010;53.640;10.578;2022-12-07T08:22:12;0.55;;;0.30;;
59239;SDS011;45010;53.640;10.578;2022-12-07T08:25:12;0.35;;;0.30;;
59239;SDS011;45010;53.640;10.578;2022-12-07T08:28:12;0.95;;;0.30;;
59239;SDS011;45010;53.640;10.578;2022-12-07T08:31:15;0.47;;;0.32;;
59239;SDS011;45010;53.640;10.578;2022-12-07T08:34:16;0.63;;;0.30;;
59239;SDS011;45010;53.640;10.578;2022-12-07T08:37:17;0.85;;;0.17;;
59239;SDS011;45010;53.640;10.578;2022-12-07T08:40:17;0.73;;;0.30;;
59239;SDS011;45010;53.640;10.578;2022-12-07T08:43:18;0.95;;;0.30;;
59239;SDS011;45010;53.640;10.578;2022-12-07T08:49:36;0.75;;;0.30;;
59239;SDS011;45010;53.640;10.578;2022-12-07T08:52:39;0.90;;;0.22;;
59239;SDS011;45010;53.640;10.578;2022-12-07T08:55:41;0.85;;;0.20;;
59239;SDS011;45010;53.640;10.578;2022-12-07T08:58:41;0.50;;;0.30;;
59239;SDS011;45010;53.640;10.578;2022-12-07T09:01:42;0.20;;;0.20;;
59239;SDS011;45010;53.640;10.578;2022-12-07T09:04:43;0.28;;;0.28;;
59239;SDS011;45010;53.640;10.578;2022-12-07T09:07:43;1.40;;;0.30;;
59239;SDS011;45010;53.640;10.578;2022-12-07T09:10:49;0.55;;;0.45;;
59239;SDS011;45010;53.640;10.578;2022-12-07T09:13:49;0.65;;;0.32;;
59239;SDS011;45010;53.640;10.578;2022-12-07T09:16:49;0.20;;;0.20;;
59239;SDS011;45010;53.640;10.578;2022-12-07T09:19:50;0.30;;;0.30;;
59239;SDS011;45010;53.640;10.578;2022-12-07T09:22:50;0.65;;;0.38;;
59239;SDS011;45010;53.640;10.578;2022-12-07T09:25:50;0.38;;;0.30;;
59239;SDS011;45010;53.640;10.578;2022-12-07T09:28:51;0.35;;;0.30;;
59239;SDS011;45010;53.640;10.578;2022-12-07T09:31:52;2.25;;;0.40;;
59239;SDS011;45010;53.640;10.578;2022-12-07T09:34:52;0.50;;;0.30;;
59239;SDS011;45010;53.640;10.578;2022-12-07T09:37:53;1.20;;;0.25;;
59239;SDS011;45010;53.640;10.578;2022-12-07T09:40:53;0.73;;;0.35;;
59239;SDS011;45010;53.640;10.578;2022-12-07T09:43:57;0.20;;;0.20;;
59239;SDS011;45010;53.640;10.578;2022-12-07T09:47:04;0.40;;;0.30;;
59239;SDS011;45010;53.640;10.578;2022-12-07T09:50:05;1.20;;;0.38;;
59239;SDS011;45010;53.640;10.578;2022-12-07T09:53:18;0.43;;;0.30;;
59239;SDS011;45010;53.640;10.578;2022-12-07T09:56:24;0.32;;;0.28;;
59239;SDS011;45010;53.640;10.578;2022-12-07T09:59:25;1.85;;;0.30;;
59239;SDS011;45010;53.640;10.578;2022-12-07T10:02:39;0.40;;;0.30;;
59239;SDS011;45010;53.640;10.578;2022-12-07T10:05:42;1.85;;;0.60;;
59239;SDS011;45010;53.640;10.578;2022-12-07T10:08:46;0.43;;;0.40;;
59239;SDS011;45010;53.640;10.578;2022-12-07T10:12:00;1.58;;;0.45;;
59239;SDS011;45010;53.640;10.578;2022-12-07T10:15:05;1.10;;;0.30;;
59239;SDS011;45010;53.640;10.578;2022-12-07T10:18:16;1.85;;;0.30;;
59239;SDS011;45010;53.640;10.578;2022-12-07T10:24:26;2.53;;;0.50;;
59239;SDS011;45010;53.640;10.578;2022-12-07T10:27:29;1.13;;;0.50;;
59239;SDS011;45010;53.640;10.578;2022-12-07T10:30:32;2.15;;;0.40;;
59239;SDS011;45010;53.640;10.578;2022-12-07T10:33:36;0.45;;;0.38;;
59239;SDS011;45010;53.640;10.578;2022-12-07T10:36:53;0.28;;;0.20;;
59239;SDS011;45010;53.640;10.578;2022-12-07T10:40:23;0.77;;;0.38;;
59239;SDS011;45010;53.640;10.578;2022-12-07T10:43:31;0.75;;;0.30;;
59239;SDS011;45010;53.640;10.578;2022-12-07T10:46:37;2.92;;;0.75;;
59239;SDS011;45010;53.640;10.578;2022-12-07T10:56:22;0.47;;;0.38;;
59239;SDS011;45010;53.640;10.578;2022-12-07T11:06:26;2.28;;;0.40;;
59239;SDS011;45010;53.640;10.578;2022-12-07T11:13:02;4.22;;;0.40;;
59239;SDS011;45010;53.640;10.578;2022-12-07T11:29:59;0.82;;;0.50;;
59239;SDS011;45010;53.640;10.578;2022-12-07T11:33:19;0.90;;;0.45;;
59239;SDS011;45010;53.640;10.578;2022-12-07T11:39:37;1.83;;;0.40;;
59239;SDS011;45010;53.640;10.578;2022-12-07T11:43:01;1.70;;;0.50;;
59239;SDS011;45010;53.640;10.578;2022-12-07T11:46:06;57.05;;;21.80;;
59239;SDS011;45010;53.640;10.578;2022-12-07T11:52:26;97.97;;;32.78;;
59239;SDS011;45010;53.640;10.578;2022-12-07T11:55:43;72.10;;;27.90;;
59239;SDS011;45010;53.640;10.578;2022-12-07T11:58:55;38.15;;;14.57;;
59239;SDS011;45010;53.640;10.578;2022-12-07T12:02:07;22.35;;;9.60;;
59239;SDS011;45010;53.640;10.578;2022-12-07T12:05:31;17.48;;;6.13;;
59239;SDS011;45010;53.640;10.578;2022-12-07T12:08:53;10.98;;;3.85;;
59239;SDS011;45010;53.640;10.578;2022-12-07T12:15:41;40.97;;;15.77;;
59239;SDS011;45010;53.640;10.578;2022-12-07T12:22:10;18.90;;;7.03;;
59239;SDS011;45010;53.640;10.578;2022-12-07T12:28:37;147.30;;;50.00;;
59239;SDS011;45010;53.640;10.578;2022-12-07T12:31:41;80.90;;;27.90;;
59239;SDS011;45010;53.640;10.578;2022-12-07T12:37:48;44.45;;;16.30;;
59239;SDS011;45010;53.640;10.578;2022-12-07T12:40:52;99.60;;;37.45;;
59239;SDS011;45010;53.640;10.578;2022-12-07T12:43:53;56.17;;;21.60;;
59239;SDS011;45010;53.640;10.578;2022-12-07T12:53:22;35.88;;;13.45;;
59239;SDS011;45010;53.640;10.578;2022-12-07T13:02:54;32.45;;;11.93;;
59239;SDS011;45010;53.640;10.578;2022-12-07T13:09:27;29.02;;;10.98;;
59239;SDS011;45010;53.640;10.578;2022-12-07T13:12:31;32.13;;;10.45;;
59239;SDS011;45010;53.640;10.578;2022-12-07T13:15:33;29.30;;;11.80;;
59239;SDS011;45010;53.640;10.578;2022-12-07T13:18:36;26.20;;;9.90;;
59239;SDS011;45010;53.640;10.578;2022-12-07T13:24:37;22.38;;;9.38;;
59239;SDS011;45010;53.640;10.578;2022-12-07T13:27:39;20.23;;;8.77;;
59239;SDS011;45010;53.640;10.578;2022-12-07T13:30:43;21.83;;;8.45;;
59239;SDS011;45010;53.640;10.578;2022-12-07T13:33:47;24.75;;;8.95;;
59239;SDS011;45010;53.640;10.578;2022-12-07T13:36:48;21.85;;;8.15;;
59239;SDS011;45010;53.640;10.578;2022-12-07T13:39:49;22.77;;;8.13;;
59239;SDS011;45010;53.640;10.578;2022-12-07T13:42:58;19.40;;;7.55;;
59239;SDS011;45010;53.640;10.578;2022-12-07T13:46:00;21.83;;;7.65;;
59239;SDS011;45010;53.640;10.578;2022-12-07T13:49:18;16.95;;;7.75;;
59239;SDS011;45010;53.640;10.578;2022-12-07T13:52:24;20.17;;;7.45;;
59239;SDS011;45010;53.640;10.578;2022-12-07T13:55:27;22.27;;;7.40;;
59239;SDS011;45010;53.640;10.578;2022-12-07T13:58:30;17.48;;;6.82;;
59239;SDS011;45010;53.640;10.578;2022-12-07T14:01:33;18.35;;;7.20;;
59239;SDS011;45010;53.640;10.578;2022-12-07T14:07:33;19.70;;;7.22;;
59239;SDS011;45010;53.640;10.578;2022-12-07T14:10:35;20.50;;;7.55;;
59239;SDS011;45010;53.640;10.578;2022-12-07T14:13:52;16.88;;;6.50;;
59239;SDS011;45010;53.640;10.578;2022-12-07T14:27:22;12.68;;;5.45;;
59239;SDS011;45010;53.640;10.578;2022-12-07T14:30:29;13.55;;;5.47;;
59239;SDS011;45010;53.640;10.578;2022-12-07T14:33:31;13.63;;;5.38;;
59239;SDS011;45010;53.640;10.578;2022-12-07T14:36:32;13.15;;;4.82;;
59239;SDS011;45010;53.640;10.578;2022-12-07T14:39:32;10.45;;;5.03;;
59239;SDS011;45010;53.640;10.578;2022-12-07T14:42:32;14.98;;;5.28;;
59239;SDS011;45010;53.640;10.578;2022-12-07T14:45:34;10.68;;;4.55;;
59239;SDS011;45010;53.640;10.578;2022-12-07T14:48:34;12.30;;;4.95;;
59239;SDS011;45010;53.640;10.578;2022-12-07T14:51:36;12.57;;;4.70;;
59239;SDS011;45010;53.640;10.578;2022-12-07T14:54:38;10.63;;;4.65;;
59239;SDS011;45010;53.640;10.578;2022-12-07T14:57:41;34.20;;;13.20;;
59239;SDS011;45010;53.640;10.578;2022-12-07T15:00:41;113.43;;;51.70;;
59239;SDS011;45010;53.640;10.578;2022-12-07T15:03:42;48.33;;;21.25;;
59239;SDS011;45010;53.640;10.578;2022-12-07T15:06:48;40.45;;;15.50;;
59239;SDS011;45010;53.640;10.578;2022-12-07T15:09:55;32.55;;;12.35;;
59239;SDS011;45010;53.640;10.578;2022-12-07T15:12:56;25.38;;;9.30;;
59239;SDS011;45010;53.640;10.578;2022-12-07T15:16:20;17.30;;;7.00;;
59239;SDS011;45010;53.640;10.578;2022-12-07T15:19:21;16.77;;;6.47;;
59239;SDS011;45010;53.640;10.578;2022-12-07T15:22:24;15.82;;;7.07;;
59239;SDS011;45010;53.640;10.578;2022-12-07T15:25:24;14.80;;;6.93;;
59239;SDS011;45010;53.640;10.578;2022-12-07T15:28:25;17.88;;;7.72;;
59239;SDS011;45010;53.640;10.578;2022-12-07T15:31:25;17.55;;;7.18;;
59239;SDS011;45010;53.640;10.578;2022-12-07T15:34:26;13.43;;;6.25;;
59239;SDS011;45010;53.640;10.578;2022-12-07T15:37:28;16.48;;;6.38;;
59239;SDS011;45010;53.640;10.578;2022-12-07T15:40:28;15.57;;;6.80;;
59239;SDS011;45010;53.640;10.578;2022-12-07T15:43:29;13.13;;;6.60;;
59239;SDS011;45010;53.640;10.578;2022-12-07T15:46:48;13.02;;;5.97;;
59239;SDS011;45010;53.640;10.578;2022-12-07T15:49:48;13.60;;;5.57;;
59239;SDS011;45010;53.640;10.578;2022-12-07T15:52:49;14.77;;;5.80;;
59239;SDS011;45010;53.640;10.578;2022-12-07T15:55:49;11.82;;;5.75;;
59239;SDS011;45010;53.640;10.578;2022-12-07T15:58:49;11.90;;;5.60;;
59239;SDS011;45010;53.640;10.578;2022-12-07T16:01:49;12.07;;;5.68;;
59239;SDS011;45010;53.640;10.578;2022-12-07T16:04:50;14.65;;;5.55;;
59239;SDS011;45010;53.640;10.578;2022-12-07T16:07:51;11.18;;;4.80;;
59239;SDS011;45010;53.640;10.578;2022-12-07T16:10:51;11.50;;;4.90;;
59239;SDS011;45010;53.640;10.578;2022-12-07T16:13:52;12.43;;;5.18;;
59239;SDS011;45010;53.640;10.578;2022-12-07T16:16:52;9.95;;;4.60;;
59239;SDS011;45010;53.640;10.578;2022-12-07T16:19:53;10.00;;;4.43;;
59239;SDS011;45010;53.640;10.578;2022-12-07T16:22:53;11.82;;;4.82;;
59239;SDS011;45010;53.640;10.578;2022-12-07T16:25:54;12.57;;;5.45;;
59239;SDS011;45010;53.640;10.578;2022-12-07T16:28:54;9.52;;;4.72;;
59239;SDS011;45010;53.640;10.578;2022-12-07T16:31:55;11.05;;;4.70;;
59239;SDS011;45010;53.640;10.578;2022-12-07T16:34:55;10.45;;;4.47;;
59239;SDS011;45010;53.640;10.578;2022-12-07T16:37:56;12.02;;;5.38;;
59239;SDS011;45010;53.640;10.578;2022-12-07T16:40:56;9.77;;;4.50;;
59239;SDS011;45010;53.640;10.578;2022-12-07T16:43:56;10.63;;;4.35;;
59239;SDS011;45010;53.640;10.578;2022-12-07T16:46:57;10.43;;;4.30;;
59239;SDS011;45010;53.640;10.578;2022-12-07T16:49:57;9.30;;;4.40;;
59239;SDS011;45010;53.640;10.578;2022-12-07T16:52:57;8.82;;;3.97;;
59239;SDS011;45010;53.640;10.578;2022-12-07T16:55:58;9.93;;;4.07;;
59239;SDS011;45010;53.640;10.578;2022-12-07T16:58:58;7.97;;;3.97;;
59239;SDS011;45010;53.640;10.578;2022-12-07T17:01:59;10.15;;;4.22;;
59239;SDS011;45010;53.640;10.578;2022-12-07T17:04:59;7.90;;;3.78;;
59239;SDS011;45010;53.640;10.578;2022-12-07T17:08:00;8.00;;;4.10;;
59239;SDS011;45010;53.640;10.578;2022-12-07T17:11:01;7.63;;;3.67;;
59239;SDS011;45010;53.640;10.578;2022-12-07T17:14:10;9.25;;;3.90;;
59239;SDS011;45010;53.640;10.578;2022-12-07T17:17:29;8.18;;;3.85;;
59239;SDS011;45010;53.640;10.578;2022-12-07T17:20:29;7.82;;;3.63;;
59239;SDS011;45010;53.640;10.578;2022-12-07T17:23:30;6.22;;;3.33;;
59239;SDS011;45010;53.640;10.578;2022-12-07T17:26:31;7.25;;;3.63;;
59239;SDS011;45010;53.640;10.578;2022-12-07T17:29:31;8.02;;;3.90;;
59239;SDS011;45010;53.640;10.578;2022-12-07T17:32:32;9.73;;;3.70;;
59239;SDS011;45010;53.640;10.578;2022-12-07T17:35:32;7.35;;;3.60;;
59239;SDS011;45010;53.640;10.578;2022-12-07T17:38:33;8.70;;;3.50;;
59239;SDS011;45010;53.640;10.578;2022-12-07T17:41:33;6.85;;;3.10;;
59239;SDS011;45010;53.640;10.578;2022-12-07T17:44:52;8.23;;;3.80;;
59239;SDS011;45010;53.640;10.578;2022-12-07T17:47:52;6.93;;;3.25;;
59239;SDS011;45010;53.640;10.578;2022-12-07T17:50:53;8.82;;;3.30;;
59239;SDS011;45010;53.640;10.578;2022-12-07T17:54:12;7.60;;;3.38;;
59239;SDS011;45010;53.640;10.578;2022-12-07T17:57:13;5.63;;;3.15;;
59239;SDS011;45010;53.640;10.578;2022-12-07T18:00:13;5.85;;;2.75;;
59239;SDS011;45010;53.640;10.578;2022-12-07T18:03:14;7.85;;;2.78;;
59239;SDS011;45010;53.640;10.578;2022-12-07T18:06:14;6.40;;;2.90;;
59239;SDS011;45010;53.640;10.578;2022-12-07T18:09:15;4.85;;;2.50;;
59239;SDS011;45010;53.640;10.578;2022-12-07T18:12:15;6.50;;;3.20;;
59239;SDS011;45010;53.640;10.578;2022-12-07T18:15:15;3.63;;;2.25;;
59239;SDS011;45010;53.640;10.578;2022-12-07T18:18:16;6.57;;;2.50;;
59239;SDS011;45010;53.640;10.578;2022-12-07T18:21:17;5.78;;;2.78;;
59239;SDS011;45010;53.640;10.578;2022-12-07T18:24:19;4.47;;;2.13;;
59239;SDS011;45010;53.640;10.578;2022-12-07T18:27:19;5.50;;;2.78;;
59239;SDS011;45010;53.640;10.578;2022-12-07T18:30:20;5.22;;;2.72;;
59239;SDS011;45010;53.640;10.578;2022-12-07T18:33:20;4.38;;;2.20;;
59239;SDS011;45010;53.640;10.578;2022-12-07T18:36:21;5.85;;;2.67;;
59239;SDS011;45010;53.640;10.578;2022-12-07T18:39:22;4.72;;;2.47;;
59239;SDS011;45010;53.640;10.578;2022-12-07T18:42:23;4.90;;;2.03;;
59239;SDS011;45010;53.640;10.578;2022-12-07T18:45:24;5.07;;;2.10;;
59239;SDS011;45010;53.640;10.578;2022-12-07T18:48:24;4.22;;;2.35;;
59239;SDS011;45010;53.640;10.578;2022-12-07T18:51:25;4.03;;;2.03;;
59239;SDS011;45010;53.640;10.578;2022-12-07T18:54:27;4.75;;;2.00;;
59239;SDS011;45010;53.640;10.578;2022-12-07T18:57:29;4.32;;;1.98;;
59239;SDS011;45010;53.640;10.578;2022-12-07T19:00:32;5.03;;;2.42;;
59239;SDS011;45010;53.640;10.578;2022-12-07T19:03:33;4.35;;;2.30;;
59239;SDS011;45010;53.640;10.578;2022-12-07T19:06:33;5.78;;;2.17;;
59239;SDS011;45010;53.640;10.578;2022-12-07T19:09:34;6.25;;;2.33;;
59239;SDS011;45010;53.640;10.578;2022-12-07T19:12:34;4.28;;;1.80;;
59239;SDS011;45010;53.640;10.578;2022-12-07T19:15:35;4.63;;;2.20;;
59239;SDS011;45010;53.640;10.578;2022-12-07T19:18:39;4.65;;;2.17;;
59239;SDS011;45010;53.640;10.578;2022-12-07T19:21:39;4.85;;;2.50;;
59239;SDS011;45010;53.640;10.578;2022-12-07T19:24:40;4.03;;;1.88;;
59239;SDS011;45010;53.640;10.578;2022-12-07T19:27:42;3.38;;;1.88;;
59239;SDS011;45010;53.640;10.578;2022-12-07T19:30:42;4.35;;;1.90;;
59239;SDS011;45010;53.640;10.578;2022-12-07T19:33:43;4.55;;;2.08;;
59239;SDS011;45010;53.640;10.578;2022-12-07T19:36:43;3.83;;;1.92;;
59239;SDS011;45010;53.640;10.578;2022-12-07T19:39:45;3.75;;;1.73;;
59239;SDS011;45010;53.640;10.578;2022-12-07T19:42:47;4.85;;;1.88;;
59239;SDS011;45010;53.640;10.578;2022-12-07T19:45:47;4.15;;;2.13;;
59239;SDS011;45010;53.640;10.578;2022-12-07T19:48:47;2.83;;;1.83;;
59239;SDS011;45010;53.640;10.578;2022-12-07T19:51:52;4.03;;;1.70;;